CheckWX is a tool to help pilots better visualize weather data.  It is not intended as a substitute for an official pre-flight weather briefing.

19:33:23 UTC

KHPN METAR
Westchester County Airport
White Plains, New York, USA
Current

37 mins ago

KHPN 121856Z 32018G23KT 10SM BKN029 00/M07 A2988 RMK AO2 SLP125 T00001072
Observed
Nov-12 @ 18:56 UTC
Wind
  • 320° at 18 KTS
  • Gusting to 23 KTS
Visibility
10 SM
Flight Rules
MVFR
Cloud Levels
  • Broken at 2,900' AGL
Temperature
C / 32°F
Dewpoint
-7°C / 19°F
Humidity
60%
Altimeter
29.88" Hg
Pressure
1011.82 hPa
Previous

2 hours ago

KHPN 121756Z 31016G22KT 9SM FEW010 BKN028 01/M04 A2986 RMK AO2 PK WND 30026/1712 SNE51 SLP118 P0000 60002 T00111044 10117 20011 51034
Observed
Nov-12 @ 17:56 UTC
Wind
  • 310° at 16 KTS
  • Gusting to 22 KTS
Visibility
9 SM
Flight Rules
MVFR
Cloud Levels
  • Few at 1,000' AGL
  • Broken at 2,800' AGL
Temperature
C / 34°F
Dewpoint
-4°C / 25°F
Humidity
70%
Altimeter
29.86" Hg
Pressure
1011.22 hPa
Current Rain
0.01"
Previous

2 hours ago

KHPN 121736Z 32017G24KT 2SM -SN BKN026 01/M04 A2985 RMK AO2 PK WND 30026/1712 P0000 T00111039
Observed
Nov-12 @ 17:36 UTC
Wind
  • 320° at 17 KTS
  • Gusting to 24 KTS
Visibility
2 SM
Flight Rules
IFR
Conditions
Light Snow
Cloud Levels
  • Broken at 2,600' AGL
Temperature
C / 34°F
Dewpoint
-4°C / 25°F
Humidity
70%
Altimeter
29.85" Hg
Pressure
1010.82 hPa
Current Rain
0.01"